< < Back
Terminal Aerodrome Forecast


Current Version              Previous Versions:   1  2  3  4  5  6  7  8  9  

Terminal Aerodrome Forecast

706
FTUS44 KBMX 121728
TAFBHM
TAF
KBHM 121728Z 1218/1318 28010G18KT P6SM SKC
     FM122300 32009KT P6SM SKC
     FM130600 35008KT P6SM SKC=

Latest METAR

633
SAUS70 KWBC 130000 RRK
MTRBHM
METAR KBHM 122353Z 30010KT 10SM FEW250 13/M02 A3019 RMK AO2 SLP221
T01331017 10178 20133 53022


USA.gov is the U.S. government's official web portal to all federal, state and local government web resources and services.